createdAt,value
2022-10-18T00:00:21.399Z,5.05
2022-10-18T00:02:48.170Z,3.92
2022-10-18T00:05:15.121Z,4.07
2022-10-18T00:07:41.856Z,3.35
2022-10-18T00:10:08.843Z,4.10
2022-10-18T00:12:36.482Z,4.43
2022-10-18T00:15:04.978Z,4.55
2022-10-18T00:17:32.070Z,3.50
2022-10-18T00:19:59.321Z,4.40
2022-10-18T00:22:26.146Z,4.20
2022-10-18T00:24:55.334Z,4.35
2022-10-18T00:27:22.137Z,3.28
2022-10-18T00:29:52.379Z,3.75
2022-10-18T00:32:19.175Z,4.30
2022-10-18T00:34:48.583Z,4.20
2022-10-18T00:37:19.533Z,4.65
2022-10-18T00:39:48.937Z,4.07
2022-10-18T00:42:19.493Z,3.03
2022-10-18T00:44:46.187Z,4.35
2022-10-18T00:47:14.494Z,3.70
2022-10-18T00:49:43.729Z,3.92
2022-10-18T00:52:16.958Z,4.10
2022-10-18T00:54:45.115Z,4.00
2022-10-18T00:57:12.749Z,3.30
2022-10-18T00:59:39.851Z,3.38
2022-10-18T01:02:07.167Z,3.55
2022-10-18T01:04:34.670Z,3.88
2022-10-18T01:07:10.621Z,3.42
2022-10-18T01:09:56.304Z,3.75
2022-10-18T01:12:38.381Z,3.50
2022-10-18T01:15:11.679Z,3.50
2022-10-18T01:20:35.921Z,3.38
2022-10-18T01:23:15.883Z,3.20
2022-10-18T01:25:57.124Z,3.13
2022-10-18T01:28:26.685Z,4.22
2022-10-18T01:31:15.065Z,3.63
2022-10-18T01:33:49.234Z,3.60
2022-10-18T01:36:25.936Z,3.83
2022-10-18T01:38:54.584Z,3.58
2022-10-18T01:41:23.166Z,3.13
2022-10-18T01:43:51.166Z,3.40
2022-10-18T01:46:20.147Z,3.40
2022-10-18T01:48:47.535Z,3.25
2022-10-18T01:51:14.341Z,3.58
2022-10-18T01:53:41.069Z,3.72
2022-10-18T01:56:07.795Z,3.55
2022-10-18T01:58:42.519Z,3.15
2022-10-18T02:01:18.161Z,2.85
2022-10-18T02:03:47.761Z,3.55
2022-10-18T02:06:17.285Z,3.45
2022-10-18T02:08:49.702Z,2.85
2022-10-18T02:11:17.576Z,3.42
2022-10-18T02:13:48.769Z,3.58
2022-10-18T02:16:24.720Z,3.03
2022-10-18T02:19:14.276Z,4.22
2022-10-18T02:21:42.127Z,3.03
2022-10-18T02:24:10.036Z,3.08
2022-10-18T02:26:36.923Z,3.67
2022-10-18T02:29:03.866Z,3.90
2022-10-18T02:31:33.624Z,3.47
2022-10-18T02:34:03.344Z,2.67
2022-10-18T02:36:43.958Z,2.67
2022-10-18T02:39:16.355Z,3.30
2022-10-18T02:41:46.639Z,3.13
2022-10-18T02:44:15.485Z,3.30
2022-10-18T02:46:42.657Z,4.10
2022-10-18T02:49:12.054Z,3.30
2022-10-18T02:51:42.581Z,3.00
2022-10-18T02:54:09.485Z,3.42
2022-10-18T02:56:36.280Z,3.00
2022-10-18T02:59:05.032Z,2.80
2022-10-18T03:01:33.244Z,3.33
2022-10-18T03:04:00.249Z,2.88
2022-10-18T03:06:27.028Z,3.22
2022-10-18T03:08:54.137Z,3.00
2022-10-18T03:11:21.053Z,2.95
2022-10-18T03:13:47.853Z,2.85
2022-10-18T03:16:14.697Z,3.55
2022-10-18T03:18:41.471Z,3.58
2022-10-18T03:21:08.701Z,3.28
2022-10-18T03:23:35.793Z,3.42
2022-10-18T03:26:02.584Z,3.15
2022-10-18T03:28:29.379Z,3.88
2022-10-18T03:31:03.028Z,3.20
2022-10-18T03:33:30.193Z,2.50
2022-10-18T03:35:57.059Z,3.70
2022-10-18T03:38:23.879Z,3.53
2022-10-18T03:40:50.692Z,3.45
2022-10-18T03:43:17.498Z,3.63
2022-10-18T03:45:44.287Z,3.17
2022-10-18T03:48:11.033Z,3.38
2022-10-18T03:50:37.874Z,3.08
2022-10-18T03:53:04.788Z,2.60
2022-10-18T03:55:31.555Z,3.35
2022-10-18T03:57:58.327Z,2.50
2022-10-18T04:00:25.391Z,2.58
2022-10-18T04:02:55.064Z,3.05
2022-10-18T04:05:24.214Z,2.80
2022-10-18T04:07:51.215Z,2.53
2022-10-18T04:10:18.730Z,3.10
2022-10-18T04:12:45.579Z,3.03
2022-10-18T04:15:12.438Z,2.95
2022-10-18T04:17:39.192Z,2.75
2022-10-18T04:20:06.302Z,3.08
2022-10-18T04:22:33.083Z,2.83
2022-10-18T04:24:59.860Z,3.15
2022-10-18T04:27:26.669Z,2.58
2022-10-18T04:29:53.425Z,2.53
2022-10-18T04:32:20.156Z,2.58
2022-10-18T04:34:46.940Z,2.58
2022-10-18T04:37:13.950Z,3.17
2022-10-18T04:39:40.754Z,2.40
2022-10-18T04:42:07.519Z,3.35
2022-10-18T04:44:34.494Z,3.35
2022-10-18T04:47:01.258Z,2.92
2022-10-18T04:49:28.053Z,2.90
2022-10-18T04:51:54.819Z,2.80
2022-10-18T04:54:23.878Z,2.35
2022-10-18T04:59:19.973Z,2.40
2022-10-18T05:01:46.864Z,3.30
2022-10-18T05:04:13.762Z,2.72
2022-10-18T05:06:40.645Z,2.97
2022-10-18T05:09:07.426Z,2.40
2022-10-18T05:11:34.239Z,2.95
2022-10-18T05:14:01.084Z,2.70
2022-10-18T05:16:28.506Z,2.95
2022-10-18T05:18:55.408Z,2.97
2022-10-18T05:21:22.197Z,3.17
2022-10-18T05:23:48.953Z,2.92
2022-10-18T05:26:15.753Z,4.28
2022-10-18T05:28:42.616Z,4.10
2022-10-18T05:31:11.034Z,3.13
2022-10-18T05:33:37.777Z,3.20
2022-10-18T05:36:04.601Z,2.92
2022-10-18T05:38:31.547Z,2.90
2022-10-18T05:40:59.339Z,3.60
2022-10-18T05:43:29.688Z,3.47
2022-10-18T05:45:56.564Z,3.15
2022-10-18T05:48:23.487Z,3.50
2022-10-18T05:50:50.317Z,4.05
2022-10-18T05:53:36.573Z,4.18
2022-10-18T05:56:04.114Z,3.58
2022-10-18T05:58:30.868Z,2.97
2022-10-18T06:01:01.461Z,3.80
2022-10-18T06:03:30.352Z,3.05
2022-10-18T06:06:12.135Z,3.63
2022-10-18T06:08:40.109Z,2.85
2022-10-18T06:11:08.236Z,2.92
2022-10-18T06:13:35.034Z,3.42
2022-10-18T06:16:01.994Z,3.10
2022-10-18T06:18:29.901Z,2.88
2022-10-18T06:20:59.685Z,2.60
2022-10-18T06:23:29.937Z,2.30
2022-10-18T06:26:04.365Z,2.78
2022-10-18T06:28:31.237Z,2.45
2022-10-18T06:30:58.142Z,2.75
2022-10-18T06:33:25.002Z,2.35
2022-10-18T06:35:55.937Z,2.53
2022-10-18T06:38:22.773Z,2.58
2022-10-18T06:40:49.599Z,2.65
2022-10-18T06:43:21.037Z,3.00
2022-10-18T06:45:48.618Z,2.78
2022-10-18T06:48:15.624Z,2.90
2022-10-18T06:50:45.232Z,2.40
2022-10-18T06:53:12.285Z,2.53
2022-10-18T06:55:39.066Z,2.38
2022-10-18T06:58:05.995Z,2.10
2022-10-18T07:00:32.795Z,2.35
2022-10-18T07:02:59.656Z,2.20
2022-10-18T07:05:28.669Z,2.28
2022-10-18T07:07:56.445Z,2.30
2022-10-18T07:10:24.153Z,2.00
2022-10-18T07:12:53.422Z,2.30
2022-10-18T07:15:24.182Z,2.25
2022-10-18T07:17:51.121Z,2.00
2022-10-18T07:20:18.234Z,2.10
2022-10-18T07:22:45.001Z,2.03
2022-10-18T07:25:11.804Z,2.00
2022-10-18T07:27:39.644Z,2.33
2022-10-18T07:30:07.756Z,2.08
2022-10-18T07:32:34.574Z,2.08
2022-10-18T07:35:05.307Z,2.15
2022-10-18T07:37:32.482Z,2.30
2022-10-18T07:39:59.527Z,2.33
2022-10-18T07:42:26.338Z,2.20
2022-10-18T07:44:53.111Z,2.38
2022-10-18T07:47:21.898Z,2.80
2022-10-18T07:49:48.703Z,2.22
2022-10-18T07:52:15.475Z,3.25
2022-10-18T07:54:42.402Z,2.80
2022-10-18T07:57:09.274Z,2.92
2022-10-18T07:59:36.080Z,2.97
2022-10-18T08:02:02.961Z,3.08
2022-10-18T08:04:29.848Z,2.85
2022-10-18T08:06:56.598Z,2.55
2022-10-18T08:09:23.360Z,3.22
2022-10-18T08:11:50.628Z,3.03
2022-10-18T08:14:17.409Z,3.28
2022-10-18T08:16:44.236Z,3.10
2022-10-18T08:19:18.435Z,3.30
2022-10-18T08:21:45.339Z,3.10
2022-10-18T08:24:12.397Z,3.50
2022-10-18T08:26:39.248Z,3.30
2022-10-18T08:29:22.421Z,3.75
2022-10-18T08:31:50.902Z,4.05
2022-10-18T08:34:19.803Z,4.15
2022-10-18T08:36:46.920Z,4.75
2022-10-18T08:39:13.737Z,4.65
2022-10-18T08:41:59.402Z,5.10
2022-10-18T08:44:27.574Z,5.05
2022-10-18T08:47:13.705Z,4.75
2022-10-18T08:49:47.073Z,5.38
2022-10-18T08:52:34.787Z,5.32
2022-10-18T08:55:20.321Z,4.65
2022-10-18T08:57:47.582Z,4.78
2022-10-18T09:00:18.836Z,4.68
2022-10-18T09:02:50.824Z,4.57
2022-10-18T09:05:23.881Z,4.38
2022-10-18T09:07:54.088Z,3.88
2022-10-18T09:10:20.872Z,4.85
2022-10-18T09:12:50.424Z,4.70
2022-10-18T09:15:29.510Z,4.72
2022-10-18T09:17:59.293Z,4.35
2022-10-18T09:20:27.566Z,4.15
2022-10-18T09:23:00.949Z,3.97
2022-10-18T09:25:44.427Z,5.07
2022-10-18T09:28:15.932Z,4.13
2022-10-18T09:30:59.540Z,4.28
2022-10-18T09:33:39.540Z,4.60
2022-10-18T09:36:08.802Z,4.07
2022-10-18T09:38:44.851Z,4.47
2022-10-18T09:41:18.645Z,4.18
2022-10-18T09:43:48.248Z,4.15
2022-10-18T09:46:15.689Z,4.78
2022-10-18T09:48:57.137Z,4.20
2022-10-18T09:51:25.677Z,4.55
2022-10-18T09:53:58.384Z,4.55
2022-10-18T09:56:41.056Z,5.40
2022-10-18T09:59:23.964Z,5.65
2022-10-18T10:01:50.764Z,5.57
2022-10-18T10:04:17.511Z,6.10
2022-10-18T10:06:50.790Z,6.22
2022-10-18T10:09:18.426Z,6.53
2022-10-18T10:11:47.997Z,6.63
2022-10-18T10:14:17.832Z,7.72
2022-10-18T10:16:46.800Z,7.78
2022-10-18T10:19:24.331Z,7.28
2022-10-18T10:21:52.617Z,7.47
2022-10-18T10:24:38.352Z,8.00
2022-10-18T10:27:06.836Z,7.13
2022-10-18T10:29:46.197Z,8.20
2022-10-18T10:32:14.253Z,8.13
2022-10-18T10:34:43.924Z,9.85
2022-10-18T10:37:26.458Z,9.75
2022-10-18T10:40:18.472Z,9.60
2022-10-18T10:43:18.314Z,8.75
2022-10-18T10:46:05.153Z,10.23
2022-10-18T10:48:40.854Z,8.50
2022-10-18T10:51:08.880Z,7.68
2022-10-18T10:53:40.902Z,7.22
2022-10-18T10:56:16.592Z,6.97
2022-10-18T10:58:43.661Z,7.78
2022-10-18T11:01:19.593Z,7.20
2022-10-18T11:03:48.005Z,7.88
2022-10-18T11:06:34.862Z,7.90
2022-10-18T11:09:03.415Z,7.00
2022-10-18T11:11:33.619Z,7.40
2022-10-18T11:14:26.224Z,7.72
2022-10-18T11:16:53.760Z,7.65
2022-10-18T11:19:35.301Z,6.57
2022-10-18T11:22:04.245Z,6.18
2022-10-18T11:24:31.095Z,6.10
2022-10-18T11:27:08.582Z,5.30
2022-10-18T11:29:54.388Z,4.90
2022-10-18T11:32:33.686Z,5.25
2022-10-18T11:35:00.686Z,5.50
2022-10-18T11:37:46.727Z,5.00
2022-10-18T11:40:28.799Z,5.47
2022-10-18T11:43:10.084Z,5.40
2022-10-18T11:45:39.720Z,5.78
2022-10-18T11:48:28.595Z,5.35
2022-10-18T11:50:58.633Z,4.65
2022-10-18T11:53:32.305Z,5.28
2022-10-18T11:56:02.943Z,5.05
2022-10-18T11:58:32.637Z,4.03
2022-10-18T12:01:08.339Z,6.47
2022-10-18T12:06:33.722Z,4.78
2022-10-18T12:09:08.362Z,4.03
2022-10-18T12:11:47.157Z,4.32
2022-10-18T12:14:23.109Z,3.13
2022-10-18T12:16:52.373Z,3.05
2022-10-18T12:19:26.736Z,2.45
2022-10-18T12:22:02.902Z,1.70
2022-10-18T12:24:32.095Z,1.35
2022-10-18T12:27:00.213Z,1.75
2022-10-18T12:29:27.043Z,1.77
2022-10-18T12:32:02.477Z,1.45
2022-10-18T12:34:39.583Z,1.50
2022-10-18T12:37:27.317Z,1.40
2022-10-18T12:40:18.783Z,1.58
2022-10-18T12:42:51.227Z,1.42
2022-10-18T12:45:24.875Z,1.70
2022-10-18T12:47:54.585Z,1.70
2022-10-18T12:50:36.447Z,1.70
2022-10-18T12:53:05.211Z,2.13
2022-10-18T12:55:34.894Z,1.50
2022-10-18T12:58:05.370Z,1.52
2022-10-18T13:00:32.095Z,1.88
2022-10-18T13:03:08.057Z,1.67
2022-10-18T13:05:56.104Z,1.40
2022-10-18T13:08:26.725Z,1.55
2022-10-18T13:11:16.157Z,1.45
2022-10-18T13:13:48.873Z,1.30
2022-10-18T13:16:34.478Z,1.40
2022-10-18T13:19:19.437Z,1.45
2022-10-18T13:21:46.204Z,1.63
2022-10-18T13:24:19.020Z,1.58
2022-10-18T13:27:24.331Z,1.60
2022-10-18T13:30:07.959Z,1.40
2022-10-18T13:32:36.744Z,1.65
2022-10-18T13:35:03.610Z,1.83
2022-10-18T13:37:30.800Z,1.58
2022-10-18T13:40:22.624Z,1.45
2022-10-18T13:42:49.419Z,1.65
2022-10-18T13:45:35.279Z,1.40
2022-10-18T13:48:28.642Z,1.73
2022-10-18T13:50:58.914Z,1.60
2022-10-18T13:53:46.124Z,1.65
2022-10-18T13:56:13.199Z,1.35
2022-10-18T13:58:49.114Z,1.42
2022-10-18T14:01:37.674Z,1.50
2022-10-18T14:04:27.397Z,1.63
2022-10-18T14:07:02.051Z,1.20
2022-10-18T14:09:43.620Z,1.30
2022-10-18T14:12:19.952Z,1.50
2022-10-18T14:15:02.702Z,1.40
2022-10-18T14:17:45.193Z,1.60
2022-10-18T14:20:15.067Z,1.50
2022-10-18T14:22:41.845Z,1.40
2022-10-18T14:25:24.247Z,1.50
2022-10-18T14:28:02.550Z,1.60
2022-10-18T14:30:29.647Z,1.40
2022-10-18T14:32:56.583Z,1.60
2022-10-18T14:35:33.288Z,1.50
2022-10-18T14:38:01.552Z,1.50
2022-10-18T14:40:35.896Z,1.42
2022-10-18T14:43:13.004Z,1.45
2022-10-18T14:45:40.817Z,1.50
2022-10-18T14:48:17.936Z,1.23
2022-10-18T14:50:48.275Z,1.30
2022-10-18T14:53:17.217Z,1.40
2022-10-18T14:55:54.949Z,1.40
2022-10-18T14:58:22.241Z,2.00
2022-10-18T15:00:49.314Z,1.30
2022-10-18T15:03:17.061Z,1.23
2022-10-18T15:05:54.848Z,1.50
2022-10-18T15:08:24.779Z,1.30
2022-10-18T15:10:54.674Z,1.50
2022-10-18T15:13:22.047Z,1.52
2022-10-18T15:15:50.056Z,1.30
2022-10-18T15:18:20.124Z,1.15
2022-10-18T15:21:11.806Z,1.33
2022-10-18T15:23:38.601Z,1.23
2022-10-18T15:26:07.403Z,1.70
2022-10-18T15:28:43.224Z,1.40
2022-10-18T15:31:21.785Z,1.60
2022-10-18T15:33:51.226Z,1.70
2022-10-18T15:36:29.349Z,1.65
2022-10-18T15:39:13.534Z,1.70
2022-10-18T15:41:45.874Z,1.40
2022-10-18T15:44:19.195Z,1.30
2022-10-18T15:46:47.717Z,1.60
2022-10-18T15:49:33.210Z,1.60
2022-10-18T15:52:09.027Z,1.63
2022-10-18T15:54:35.852Z,1.50
2022-10-18T15:57:12.516Z,1.40
2022-10-18T15:59:48.900Z,2.30
2022-10-18T16:02:16.008Z,1.88
2022-10-18T16:04:42.964Z,1.75
2022-10-18T16:07:11.193Z,2.20
2022-10-18T16:09:38.120Z,2.30
2022-10-18T16:12:04.913Z,3.92
2022-10-18T16:14:36.923Z,3.05
2022-10-18T16:17:05.615Z,2.15
2022-10-18T16:19:33.128Z,2.20
2022-10-18T16:22:05.975Z,2.92
2022-10-18T16:24:33.377Z,1.88
2022-10-18T16:27:00.158Z,1.73
2022-10-18T16:29:41.605Z,2.00
2022-10-18T16:32:11.444Z,2.60
2022-10-18T16:34:38.303Z,1.60
2022-10-18T16:37:07.918Z,2.47
2022-10-18T16:39:43.689Z,1.73
2022-10-18T16:42:18.867Z,1.83
2022-10-18T16:44:50.244Z,1.80
2022-10-18T16:47:17.985Z,1.58
2022-10-18T16:49:48.315Z,1.95
2022-10-18T16:52:18.982Z,1.90
2022-10-18T16:54:45.830Z,2.58
2022-10-18T16:57:16.680Z,1.73
2022-10-18T16:59:46.107Z,2.25
2022-10-18T17:02:15.770Z,1.95
2022-10-18T17:04:52.245Z,1.85
2022-10-18T17:07:24.279Z,2.40
2022-10-18T17:09:55.870Z,2.78
2022-10-18T17:12:25.619Z,2.00
2022-10-18T17:14:54.999Z,1.95
2022-10-18T17:17:25.182Z,1.77
2022-10-18T17:19:52.016Z,1.63
2022-10-18T17:22:20.668Z,1.70
2022-10-18T17:24:49.987Z,1.80
2022-10-18T17:27:17.500Z,1.73
2022-10-18T17:29:45.522Z,2.05
2022-10-18T17:32:17.945Z,2.15
2022-10-18T17:34:44.818Z,2.50
2022-10-18T17:37:11.829Z,2.55
2022-10-18T17:39:41.029Z,2.58
2022-10-18T17:42:15.309Z,2.22
2022-10-18T17:44:43.316Z,2.25
2022-10-18T17:47:10.119Z,2.60
2022-10-18T17:49:36.870Z,2.50
2022-10-18T17:52:06.907Z,3.15
2022-10-18T17:54:33.955Z,2.80
2022-10-18T17:57:03.553Z,2.25
2022-10-18T17:59:30.410Z,2.97
2022-10-18T18:01:57.217Z,3.08
2022-10-18T18:04:25.680Z,2.60
2022-10-18T18:06:58.155Z,3.22
2022-10-18T18:09:30.258Z,3.17
2022-10-18T18:12:00.319Z,2.30
2022-10-18T18:14:29.755Z,2.35
2022-10-18T18:16:56.613Z,1.98
2022-10-18T18:19:24.298Z,3.58
2022-10-18T18:21:53.742Z,2.20
2022-10-18T18:24:24.913Z,2.60
2022-10-18T18:26:52.998Z,2.42
2022-10-18T18:29:20.646Z,2.50
2022-10-18T18:31:47.485Z,2.92
2022-10-18T18:34:14.542Z,2.40
2022-10-18T18:36:44.377Z,2.58
2022-10-18T18:39:17.446Z,1.90
2022-10-18T18:41:44.218Z,2.53
2022-10-18T18:44:13.646Z,2.80
2022-10-18T18:46:40.465Z,2.10
2022-10-18T18:49:08.055Z,2.00
2022-10-18T18:51:37.498Z,1.88
2022-10-18T18:54:04.838Z,2.38
2022-10-18T18:56:31.684Z,2.47
2022-10-18T18:59:01.128Z,2.35
2022-10-18T19:01:36.011Z,2.90
2022-10-18T19:04:03.971Z,3.20
2022-10-18T19:06:32.024Z,3.65
2022-10-18T19:09:00.809Z,5.22
2022-10-18T19:11:28.453Z,2.90
2022-10-18T19:13:55.292Z,3.08
2022-10-18T19:16:27.944Z,3.50
2022-10-18T19:18:56.417Z,2.90
2022-10-18T19:21:24.103Z,3.58
2022-10-18T19:23:58.533Z,2.60
2022-10-18T19:26:39.060Z,2.40
2022-10-18T19:29:10.436Z,3.25
2022-10-18T19:34:05.317Z,2.85
2022-10-18T19:36:32.483Z,2.80
2022-10-18T19:38:59.359Z,2.88
2022-10-18T19:43:58.240Z,2.53
2022-10-18T19:46:25.327Z,2.00
2022-10-18T19:48:54.116Z,2.20
2022-10-18T19:51:23.012Z,2.10
2022-10-18T19:53:54.958Z,1.92
2022-10-18T19:56:23.375Z,2.45
2022-10-18T19:58:50.535Z,2.30
2022-10-18T20:01:18.372Z,1.90
2022-10-18T20:03:45.805Z,2.08
2022-10-18T20:06:12.585Z,2.20
2022-10-18T20:08:39.923Z,2.28
2022-10-18T20:11:08.095Z,2.42
2022-10-18T20:13:35.218Z,2.30
2022-10-18T20:16:03.922Z,2.28
2022-10-18T20:18:30.976Z,1.90
2022-10-18T20:21:00.010Z,2.13
2022-10-18T20:23:26.806Z,2.00
2022-10-18T20:25:56.605Z,2.15
2022-10-18T20:28:24.882Z,1.88
2022-10-18T20:31:01.010Z,1.38
2022-10-18T20:33:28.113Z,2.40
2022-10-18T20:35:54.978Z,2.10
2022-10-18T20:38:22.228Z,1.83
2022-10-18T20:40:49.279Z,2.83
2022-10-18T20:43:16.469Z,2.80
2022-10-18T20:45:56.403Z,2.63
2022-10-18T20:48:23.321Z,2.72
2022-10-18T20:50:50.263Z,2.30
2022-10-18T20:53:17.176Z,2.05
2022-10-18T20:55:44.065Z,1.90
2022-10-18T20:58:11.803Z,2.05
2022-10-18T21:00:41.450Z,2.20
2022-10-18T21:03:08.315Z,2.20
2022-10-18T21:05:35.162Z,1.88
2022-10-18T21:08:04.386Z,1.60
2022-10-18T21:10:33.918Z,1.60
2022-10-18T21:13:05.884Z,2.03
2022-10-18T21:15:32.846Z,2.20
2022-10-18T21:18:00.724Z,2.10
2022-10-18T21:20:29.766Z,1.42
2022-10-18T21:22:57.491Z,1.90
2022-10-18T21:25:26.839Z,1.85
2022-10-18T21:27:53.938Z,1.60
2022-10-18T21:30:23.546Z,2.53
2022-10-18T21:32:52.639Z,1.83
2022-10-18T21:35:19.549Z,2.25
2022-10-18T21:37:48.855Z,1.88
2022-10-18T21:40:23.138Z,1.85
2022-10-18T21:42:49.923Z,2.05
2022-10-18T21:45:22.305Z,1.90
2022-10-18T21:47:49.339Z,1.83
2022-10-18T21:50:18.719Z,1.92
2022-10-18T21:52:49.020Z,2.10
2022-10-18T21:55:19.452Z,1.85
2022-10-18T21:57:49.502Z,2.10
2022-10-18T22:00:19.147Z,1.90
2022-10-18T22:02:48.717Z,2.00
2022-10-18T22:05:18.084Z,2.13
2022-10-18T22:07:44.943Z,1.92
2022-10-18T22:10:14.411Z,1.70
2022-10-18T22:12:44.736Z,1.83
2022-10-18T22:15:13.681Z,1.73
2022-10-18T22:17:42.735Z,2.33
2022-10-18T22:20:10.277Z,1.77
2022-10-18T22:22:37.088Z,1.95
2022-10-18T22:25:04.221Z,1.80
2022-10-18T22:27:31.999Z,1.90
2022-10-18T22:30:02.257Z,2.00
2022-10-18T22:32:29.365Z,1.73
2022-10-18T22:34:58.608Z,1.98
2022-10-18T22:37:27.869Z,1.80
2022-10-18T22:39:54.723Z,2.00
2022-10-18T22:42:24.957Z,2.10
2022-10-18T22:44:54.310Z,1.95
2022-10-18T22:47:21.081Z,2.20
2022-10-18T22:49:50.816Z,1.70
2022-10-18T22:52:17.857Z,2.10
2022-10-18T22:54:44.610Z,1.80
2022-10-18T22:57:14.223Z,1.80
2022-10-18T22:59:41.364Z,2.00
2022-10-18T23:02:11.094Z,1.92
2022-10-18T23:04:40.488Z,1.90
2022-10-18T23:07:09.810Z,1.92
2022-10-18T23:09:36.600Z,1.30
2022-10-18T23:12:05.516Z,1.67
2022-10-18T23:14:32.423Z,2.58
2022-10-18T23:17:02.314Z,2.00
2022-10-18T23:19:31.392Z,1.90
2022-10-18T23:21:58.582Z,2.10
2022-10-18T23:24:25.518Z,1.77
2022-10-18T23:26:52.891Z,2.00
2022-10-18T23:29:22.015Z,1.70
2022-10-18T23:31:48.832Z,1.60
2022-10-18T23:34:18.409Z,1.75
2022-10-18T23:36:45.529Z,1.95
2022-10-18T23:39:12.306Z,1.50
2022-10-18T23:41:39.072Z,1.70
2022-10-18T23:44:07.085Z,1.60
2022-10-18T23:46:33.835Z,2.00
2022-10-18T23:49:00.599Z,1.90
2022-10-18T23:51:27.547Z,2.17
2022-10-18T23:53:54.306Z,1.85
2022-10-18T23:56:23.535Z,1.63
2022-10-18T23:58:53.409Z,2.17
